createdAt,value
2023-02-06T00:00:40.616Z,101635.97
2023-02-06T00:03:07.147Z,101636.56
2023-02-06T00:05:33.967Z,101647.91
2023-02-06T00:08:01.165Z,101646.47
2023-02-06T00:10:27.730Z,101640.50
2023-02-06T00:12:54.398Z,101630.19
2023-02-06T00:15:21.382Z,101637.44
2023-02-06T00:17:48.140Z,101640.31
2023-02-06T00:20:14.761Z,101635.16
2023-02-06T00:22:41.473Z,101641.97
2023-02-06T00:25:08.345Z,101636.84
2023-02-06T00:27:35.147Z,101633.91
2023-02-06T00:30:01.782Z,101640.94
2023-02-06T00:32:28.375Z,101636.00
2023-02-06T00:34:54.993Z,101642.63
2023-02-06T00:37:21.570Z,101641.78
2023-02-06T00:39:48.100Z,101647.16
2023-02-06T00:42:14.917Z,101644.69
2023-02-06T00:44:41.431Z,101645.94
2023-02-06T00:47:07.971Z,101647.59
2023-02-06T00:49:34.516Z,101648.00
2023-02-06T00:52:01.049Z,101658.75
2023-02-06T00:54:27.597Z,101658.75
2023-02-06T00:56:54.155Z,101660.38
2023-02-06T00:59:20.790Z,101643.69
2023-02-06T01:01:47.427Z,101645.31
2023-02-06T01:04:14.211Z,101650.88
2023-02-06T01:06:40.754Z,101647.16
2023-02-06T01:09:07.316Z,101653.38
2023-02-06T01:11:35.360Z,101649.84
2023-02-06T01:14:02.116Z,101644.47
2023-02-06T01:16:28.745Z,101649.22
2023-02-06T01:18:55.461Z,101651.31
2023-02-06T01:21:24.202Z,101648.63
2023-02-06T01:23:53.090Z,101646.75
2023-02-06T01:26:22.929Z,101645.09
2023-02-06T01:28:50.345Z,101638.91
2023-02-06T01:31:26.340Z,101640.56
2023-02-06T01:33:53.519Z,101643.88
2023-02-06T01:36:21.036Z,101640.13
2023-02-06T01:38:48.418Z,101646.34
2023-02-06T01:41:16.983Z,101643.44
2023-02-06T01:43:46.824Z,101638.69
2023-02-06T01:46:13.771Z,101630.63
2023-02-06T01:48:51.643Z,101640.13
2023-02-06T01:51:21.826Z,101639.34
2023-02-06T01:53:52.686Z,101634.34
2023-02-06T01:56:21.117Z,101640.56
2023-02-06T01:58:55.096Z,101641.19
2023-02-06T02:01:22.307Z,101639.94
2023-02-06T02:03:54.300Z,101637.69
2023-02-06T02:06:22.494Z,101640.38
2023-02-06T02:08:53.435Z,101635.22
2023-02-06T02:11:33.986Z,101633.16
2023-02-06T02:14:03.345Z,101636.47
2023-02-06T02:16:51.240Z,101635.03
2023-02-06T02:19:39.419Z,101626.13
2023-02-06T02:22:30.159Z,101633.38
2023-02-06T02:25:07.841Z,101628.22
2023-02-06T02:28:11.499Z,101629.25
2023-02-06T02:42:11.945Z,101624.13
2023-02-06T02:44:51.442Z,101619.19
2023-02-06T02:47:23.565Z,101612.97
2023-02-06T02:49:50.589Z,101608.19
2023-02-06T02:52:18.924Z,101602.84
2023-02-06T02:54:45.461Z,101605.09
2023-02-06T02:57:18.752Z,101608.63
2023-02-06T02:59:48.019Z,101612.34
2023-02-06T03:02:41.873Z,101617.09
2023-02-06T03:05:13.763Z,101625.53
2023-02-06T03:07:59.194Z,101615.81
2023-02-06T03:10:28.686Z,101617.91
2023-02-06T03:13:16.420Z,101614.00
2023-02-06T03:15:54.923Z,101624.13
2023-02-06T03:18:31.126Z,101618.94
2023-02-06T03:21:00.221Z,101610.09
2023-02-06T03:23:31.765Z,101613.81
2023-02-06T03:26:02.176Z,101613.81
2023-02-06T03:28:37.670Z,101602.66
2023-02-06T03:31:09.708Z,101612.97
2023-02-06T03:33:45.931Z,101607.41
2023-02-06T03:36:17.128Z,101605.09
2023-02-06T03:38:48.862Z,101610.09
2023-02-06T03:41:18.200Z,101593.56
2023-02-06T03:43:47.201Z,101617.94
2023-02-06T03:46:15.770Z,101604.94
2023-02-06T03:48:47.180Z,101608.25
2023-02-06T03:51:29.235Z,101602.72
2023-02-06T03:53:58.838Z,101613.03
2023-02-06T03:56:35.264Z,101608.06
2023-02-06T03:59:02.082Z,101615.09
2023-02-06T04:01:28.964Z,101610.38
2023-02-06T04:03:55.769Z,101613.47
2023-02-06T04:06:22.444Z,101607.25
2023-02-06T04:08:49.034Z,101611.81
2023-02-06T04:11:15.616Z,101613.69
2023-02-06T04:13:42.168Z,101623.97
2023-02-06T04:16:09.694Z,101627.88
2023-02-06T04:18:36.272Z,101621.09
2023-02-06T04:21:04.793Z,101623.34
2023-02-06T04:23:31.504Z,101619.44
2023-02-06T04:25:58.065Z,101626.22
2023-02-06T04:28:24.630Z,101628.28
2023-02-06T04:30:51.288Z,101629.66
2023-02-06T04:33:18.270Z,101629.25
2023-02-06T04:35:44.831Z,101631.94
2023-02-06T04:38:11.413Z,101626.78
2023-02-06T04:40:37.958Z,101628.22
2023-02-06T04:43:04.463Z,101628.84
2023-02-06T04:45:31.068Z,101631.94
2023-02-06T04:47:59.465Z,101633.84
2023-02-06T04:50:29.375Z,101633.22
2023-02-06T04:52:55.923Z,101633.03
2023-02-06T04:55:22.843Z,101643.94
2023-02-06T04:57:49.419Z,101638.19
2023-02-06T05:00:16.468Z,101627.06
2023-02-06T05:02:43.252Z,101627.88
2023-02-06T05:05:09.856Z,101622.75
2023-02-06T05:07:36.710Z,101608.06
2023-02-06T05:10:03.956Z,101603.56
2023-02-06T05:12:30.498Z,101612.59
2023-02-06T05:14:57.043Z,101600.88
2023-02-06T05:17:23.608Z,101616.69
2023-02-06T05:19:50.155Z,101608.44
2023-02-06T05:22:16.780Z,101621.63
2023-02-06T05:24:43.346Z,101622.44
2023-02-06T05:27:10.101Z,101630.22
2023-02-06T05:29:36.673Z,101634.34
2023-02-06T05:32:03.331Z,101621.38
2023-02-06T05:34:29.877Z,101631.25
2023-02-06T05:36:56.498Z,101632.47
2023-02-06T05:39:23.102Z,101627.31
2023-02-06T05:41:49.728Z,101635.16
2023-02-06T05:44:16.459Z,101634.75
2023-02-06T05:46:44.218Z,101632.69
2023-02-06T05:49:10.942Z,101628.19
2023-02-06T05:51:37.595Z,101627.78
2023-02-06T05:54:04.326Z,101620.53
2023-02-06T05:56:31.006Z,101625.31
2023-02-06T05:58:57.946Z,101620.25
2023-02-06T06:01:24.549Z,101614.59
2023-02-06T06:03:51.148Z,101611.47
2023-02-06T06:06:17.799Z,101606.34
2023-02-06T06:08:44.343Z,101604.66
2023-02-06T06:11:10.906Z,101601.34
2023-02-06T06:13:37.456Z,101604.59
2023-02-06T06:16:04.358Z,101607.44
2023-02-06T06:18:31.075Z,101608.56
2023-02-06T06:20:57.623Z,101613.63
2023-02-06T06:23:24.181Z,101618.25
2023-02-06T06:25:50.729Z,101613.72
2023-02-06T06:28:17.473Z,101605.00
2023-02-06T06:30:44.217Z,101600.47
2023-02-06T06:33:10.958Z,101594.66
2023-02-06T06:35:37.763Z,101599.59
2023-02-06T06:38:04.487Z,101598.75
2023-02-06T06:40:31.033Z,101591.44
2023-02-06T06:42:57.649Z,101595.41
2023-02-06T06:45:24.421Z,101611.53
2023-02-06T06:47:50.965Z,101609.81
2023-02-06T06:50:17.568Z,101608.44
2023-02-06T06:52:44.131Z,101613.22
2023-02-06T06:55:10.961Z,101605.81
2023-02-06T06:57:37.527Z,101594.91
2023-02-06T07:00:04.896Z,101601.28
2023-02-06T07:02:31.514Z,101604.19
2023-02-06T07:05:00.327Z,101611.19
2023-02-06T07:07:26.995Z,101608.09
2023-02-06T07:09:53.592Z,101607.63
2023-02-06T07:12:20.406Z,101608.03
2023-02-06T07:14:47.065Z,101605.75
2023-02-06T07:17:13.605Z,101608.44
2023-02-06T07:19:40.179Z,101605.56
2023-02-06T07:22:06.798Z,101609.66
2023-02-06T07:24:33.383Z,101615.22
2023-02-06T07:26:59.918Z,101602.22
2023-02-06T07:29:26.595Z,101604.47
2023-02-06T07:31:53.251Z,101603.06
2023-02-06T07:34:19.786Z,101600.56
2023-02-06T07:36:46.375Z,101616.63
2023-02-06T07:39:12.959Z,101613.56
2023-02-06T07:41:39.583Z,101611.69
2023-02-06T07:44:06.567Z,101609.84
2023-02-06T07:46:34.614Z,101621.97
2023-02-06T07:49:01.356Z,101619.53
2023-02-06T07:51:28.060Z,101616.22
2023-02-06T07:53:55.002Z,101612.13
2023-02-06T07:56:23.441Z,101618.69
2023-02-06T07:58:52.136Z,101613.75
2023-02-06T08:01:20.255Z,101615.78
2023-02-06T08:03:49.836Z,101621.97
2023-02-06T08:06:16.928Z,101627.75
2023-02-06T08:08:44.047Z,101616.44
2023-02-06T08:11:15.106Z,101623.22
2023-02-06T08:13:42.921Z,101624.25
2023-02-06T08:16:15.015Z,101627.78
2023-02-06T08:18:41.892Z,101623.84
2023-02-06T08:21:14.781Z,101618.31
2023-02-06T08:23:42.242Z,101623.28
2023-02-06T08:26:17.409Z,101618.75
2023-02-06T08:28:46.413Z,101613.38
2023-02-06T08:31:17.709Z,101621.63
2023-02-06T08:33:44.631Z,101628.28
2023-02-06T08:36:12.711Z,101630.97
2023-02-06T08:38:39.789Z,101639.00
2023-02-06T08:41:27.260Z,101641.47
2023-02-06T08:43:59.596Z,101645.59
2023-02-06T08:46:29.215Z,101646.22
2023-02-06T08:48:56.928Z,101647.25
2023-02-06T08:51:27.807Z,101646.00
2023-02-06T08:54:02.247Z,101644.38
2023-02-06T08:56:30.708Z,101648.06
2023-02-06T08:59:01.371Z,101651.78
2023-02-06T09:01:31.199Z,101646.00
2023-02-06T09:04:00.504Z,101641.06
2023-02-06T09:06:28.092Z,101638.59
2023-02-06T09:08:56.719Z,101641.50
2023-02-06T09:11:25.270Z,101635.28
2023-02-06T09:13:54.712Z,101632.84
2023-02-06T09:16:21.882Z,101630.75
2023-02-06T09:18:50.932Z,101631.97
2023-02-06T09:21:22.330Z,101630.34
2023-02-06T09:23:52.156Z,101636.94
2023-02-06T09:26:21.804Z,101622.50
2023-02-06T09:28:52.894Z,101618.19
2023-02-06T09:31:19.856Z,101628.69
2023-02-06T09:33:46.671Z,101620.44
2023-02-06T09:36:15.695Z,101620.66
2023-02-06T09:38:48.349Z,101621.72
2023-02-06T09:41:18.338Z,101626.66
2023-02-06T09:43:57.753Z,101626.66
2023-02-06T09:46:31.476Z,101621.72
2023-02-06T09:49:02.018Z,101622.13
2023-02-06T09:52:03.000Z,101633.47
2023-02-06T09:55:05.616Z,101629.13
2023-02-06T09:58:02.736Z,101621.69
2023-02-06T10:00:44.980Z,101625.78
2023-02-06T10:03:36.510Z,101629.50
2023-02-06T10:06:22.463Z,101629.06
2023-02-06T10:09:04.075Z,101631.13
2023-02-06T10:12:03.573Z,101629.50
2023-02-06T10:14:43.532Z,101628.88
2023-02-06T10:17:47.253Z,101630.75
2023-02-06T10:20:34.560Z,101628.06
2023-02-06T10:23:01.330Z,101634.06
2023-02-06T10:25:34.921Z,101635.31
2023-02-06T10:28:23.378Z,101634.09
2023-02-06T10:31:08.655Z,101622.31
2023-02-06T10:33:53.069Z,101621.69
2023-02-06T10:36:40.946Z,101635.09
2023-02-06T10:39:27.416Z,101616.53
2023-02-06T10:41:54.094Z,101627.88
2023-02-06T10:44:35.363Z,101624.97
2023-02-06T10:47:02.429Z,101610.75
2023-02-06T10:49:41.082Z,101599.00
2023-02-06T10:52:25.166Z,101597.75
2023-02-06T10:54:55.728Z,101588.22
2023-02-06T10:57:25.148Z,101595.63
2023-02-06T10:59:58.471Z,101588.63
2023-02-06T11:02:46.335Z,101588.22
2023-02-06T11:05:19.454Z,101581.63
2023-02-06T11:07:50.410Z,101577.09
2023-02-06T11:10:20.095Z,101581.19
2023-02-06T11:13:02.807Z,101584.47
2023-02-06T11:15:57.511Z,101567.06
2023-02-06T11:18:46.043Z,101566.75
2023-02-06T11:21:15.708Z,101558.38
2023-02-06T11:23:42.377Z,101544.84
2023-02-06T11:26:19.980Z,101531.59
2023-02-06T11:28:56.576Z,101537.75
2023-02-06T11:31:58.621Z,101535.00
2023-02-06T11:34:42.522Z,101529.50
2023-02-06T11:37:32.335Z,101514.38
2023-02-06T11:40:17.644Z,101518.09
2023-02-06T11:42:49.727Z,101513.50
2023-02-06T11:45:26.090Z,101505.88
2023-02-06T11:47:52.860Z,101508.50
2023-02-06T11:50:29.645Z,101499.44
2023-02-06T11:53:00.625Z,101489.28
2023-02-06T11:55:31.132Z,101493.22
2023-02-06T11:58:13.094Z,101495.91
2023-02-06T12:01:02.141Z,101476.19
2023-02-06T12:03:37.769Z,101489.31
2023-02-06T12:06:10.077Z,101490.97
2023-02-06T12:08:44.200Z,101490.94
2023-02-06T12:11:18.057Z,101474.34
2023-02-06T12:13:51.424Z,101478.47
2023-02-06T12:16:18.708Z,101481.31
2023-02-06T12:18:51.036Z,101472.19
2023-02-06T12:21:30.159Z,101473.97
2023-02-06T12:24:01.394Z,101471.22
2023-02-06T12:26:30.719Z,101472.66
2023-02-06T12:29:12.796Z,101464.50
2023-02-06T12:32:05.743Z,101468.97
2023-02-06T12:35:01.096Z,101464.72
2023-02-06T12:37:39.863Z,101467.53
2023-02-06T12:40:22.592Z,101477.13
2023-02-06T12:42:58.286Z,101468.91
2023-02-06T12:45:28.284Z,101458.13
2023-02-06T12:48:02.662Z,101463.53
2023-02-06T12:50:45.942Z,101448.56
2023-02-06T12:53:44.529Z,101456.75
2023-02-06T12:56:22.930Z,101447.97
2023-02-06T12:59:16.656Z,101453.56
2023-02-06T13:02:03.497Z,101436.16
2023-02-06T13:04:34.850Z,101433.47
2023-02-06T13:07:07.305Z,101424.09
2023-02-06T13:09:41.535Z,101425.31
2023-02-06T13:12:16.229Z,101430.56
2023-02-06T13:14:49.708Z,101427.56
2023-02-06T13:17:22.492Z,101428.06
2023-02-06T13:19:48.968Z,101420.69
2023-02-06T13:22:21.874Z,101426.66
2023-02-06T13:24:50.988Z,101419.16
2023-02-06T13:27:25.645Z,101420.34
2023-02-06T13:29:54.077Z,101402.44
2023-02-06T13:32:23.808Z,101401.88
2023-02-06T13:34:50.702Z,101411.50
2023-02-06T13:37:31.688Z,101415.16
2023-02-06T13:40:23.259Z,101415.88
2023-02-06T13:43:15.846Z,101402.16
2023-02-06T13:45:57.841Z,101395.94
2023-02-06T13:48:49.230Z,101392.84
2023-02-06T13:51:31.014Z,101391.59
2023-02-06T13:54:24.210Z,101390.69
2023-02-06T13:57:09.769Z,101382.78
2023-02-06T13:59:42.608Z,101384.75
2023-02-06T14:02:19.600Z,101373.63
2023-02-06T14:04:47.270Z,101377.25
2023-02-06T14:07:34.083Z,101378.97
2023-02-06T14:10:39.444Z,101375.91
2023-02-06T14:13:08.253Z,101370.47
2023-02-06T14:16:03.639Z,101364.03
2023-02-06T14:18:52.077Z,101360.88
2023-02-06T14:21:37.528Z,101366.13
2023-02-06T14:24:33.143Z,101368.78
2023-02-06T14:27:05.920Z,101368.09
2023-02-06T14:29:52.769Z,101366.13
2023-02-06T14:32:22.293Z,101371.47
2023-02-06T14:35:07.222Z,101374.47
2023-02-06T14:37:58.839Z,101377.22
2023-02-06T14:40:29.565Z,101367.38
2023-02-06T14:42:58.721Z,101367.78
2023-02-06T14:45:25.313Z,101368.44
2023-02-06T14:47:53.263Z,101379.72
2023-02-06T14:50:24.232Z,101377.47
2023-02-06T14:52:58.313Z,101372.91
2023-02-06T14:55:40.077Z,101377.72
2023-02-06T14:58:25.514Z,101384.41
2023-02-06T15:00:53.330Z,101390.56
2023-02-06T15:03:26.018Z,101384.81
2023-02-06T15:06:06.607Z,101395.25
2023-02-06T15:08:33.647Z,101388.53
2023-02-06T15:11:03.529Z,101384.28
2023-02-06T15:13:35.505Z,101384.00
2023-02-06T15:16:05.949Z,101382.63
2023-02-06T15:18:33.857Z,101378.03
2023-02-06T15:21:12.530Z,101386.50
2023-02-06T15:24:00.366Z,101383.28
2023-02-06T15:26:36.840Z,101387.31
2023-02-06T15:29:05.739Z,101392.97
2023-02-06T15:31:32.722Z,101390.13
2023-02-06T15:34:01.162Z,101386.84
2023-02-06T15:36:39.330Z,101402.84
2023-02-06T15:39:09.612Z,101390.66
2023-02-06T15:41:37.326Z,101391.09
2023-02-06T15:44:24.109Z,101390.13
2023-02-06T15:46:51.833Z,101394.00
2023-02-06T15:49:31.731Z,101405.81
2023-02-06T15:51:58.683Z,101398.63
2023-02-06T15:54:27.499Z,101393.72
2023-02-06T15:57:07.885Z,101392.53
2023-02-06T15:59:36.924Z,101383.25
2023-02-06T16:02:04.259Z,101390.56
2023-02-06T16:04:38.045Z,101395.19
2023-02-06T16:07:16.498Z,101390.25
2023-02-06T16:09:50.125Z,101387.38
2023-02-06T16:12:17.829Z,101388.66
2023-02-06T16:14:57.725Z,101392.44
2023-02-06T16:17:33.512Z,101397.06
2023-02-06T16:20:07.632Z,101403.06
2023-02-06T16:22:40.081Z,101402.09
2023-02-06T16:25:23.203Z,101396.38
2023-02-06T16:27:53.571Z,101406.34
2023-02-06T16:30:28.367Z,101408.84
2023-02-06T16:32:57.620Z,101397.97
2023-02-06T16:35:25.376Z,101406.88
2023-02-06T16:37:54.271Z,101397.00
2023-02-06T16:40:20.889Z,101404.06
2023-02-06T16:42:47.817Z,101404.09
2023-02-06T16:45:26.651Z,101403.31
2023-02-06T16:47:53.983Z,101400.84
2023-02-06T16:50:24.185Z,101407.88
2023-02-06T16:52:53.681Z,101408.75
2023-02-06T16:55:23.675Z,101403.41
2023-02-06T16:57:54.829Z,101416.63
2023-02-06T17:00:25.409Z,101422.03
2023-02-06T17:02:53.077Z,101425.13
2023-02-06T17:05:22.471Z,101422.88
2023-02-06T17:07:51.094Z,101427.63
2023-02-06T17:10:21.534Z,101421.25
2023-02-06T17:12:49.357Z,101433.22
2023-02-06T17:15:17.463Z,101426.63
2023-02-06T17:17:44.225Z,101431.59
2023-02-06T17:20:29.832Z,101433.25
2023-02-06T17:22:56.470Z,101426.47
2023-02-06T17:25:23.033Z,101418.03
2023-02-06T17:27:49.623Z,101419.47
2023-02-06T17:30:21.687Z,101433.28
2023-02-06T17:32:48.484Z,101417.25
2023-02-06T17:35:15.603Z,101416.22
2023-02-06T17:37:42.260Z,101420.13
2023-02-06T17:40:11.779Z,101430.03
2023-02-06T17:42:38.380Z,101418.03
2023-02-06T17:45:05.197Z,101424.66
2023-02-06T17:47:31.796Z,101427.94
2023-02-06T17:49:58.403Z,101423.00
2023-02-06T17:52:26.156Z,101419.09
2023-02-06T17:54:52.704Z,101406.13
2023-02-06T17:57:19.264Z,101414.59
2023-02-06T17:59:45.840Z,101421.38
2023-02-06T18:02:14.455Z,101414.78
2023-02-06T18:04:41.399Z,101418.09
2023-02-06T18:07:08.242Z,101432.09
2023-02-06T18:09:34.802Z,101434.16
2023-02-06T18:12:01.349Z,101436.81
2023-02-06T18:14:28.014Z,101444.44
2023-02-06T18:16:54.593Z,101427.13
2023-02-06T18:19:24.851Z,101427.56
2023-02-06T18:21:51.727Z,101433.31
2023-02-06T18:24:18.273Z,101425.09
2023-02-06T18:26:44.923Z,101417.44
2023-02-06T18:29:11.465Z,101411.06
2023-02-06T18:31:38.593Z,101414.75
2023-02-06T18:34:08.058Z,101415.59
2023-02-06T18:36:36.244Z,101411.44
2023-02-06T18:39:03.962Z,101411.41
2023-02-06T18:41:48.834Z,101407.91
2023-02-06T18:44:15.417Z,101407.28
2023-02-06T18:46:42.107Z,101393.69
2023-02-06T18:49:08.727Z,101403.13
2023-02-06T18:51:35.533Z,101401.91
2023-02-06T18:54:02.175Z,101391.22
2023-02-06T18:56:28.824Z,101400.88
2023-02-06T18:58:55.424Z,101388.31
2023-02-06T19:01:23.509Z,101385.44
2023-02-06T19:03:52.319Z,101380.28
2023-02-06T19:06:24.786Z,101378.88
2023-02-06T19:08:51.404Z,101389.56
2023-02-06T19:11:18.031Z,101382.56
2023-02-06T19:13:44.633Z,101382.56
2023-02-06T19:16:17.753Z,101377.22
2023-02-06T19:18:46.742Z,101377.22
2023-02-06T19:21:16.463Z,101375.53
2023-02-06T19:23:44.056Z,101373.53
2023-02-06T19:26:13.514Z,101379.25
2023-02-06T19:28:41.217Z,101381.69
2023-02-06T19:31:09.623Z,101372.44
2023-02-06T19:33:38.595Z,101382.50
2023-02-06T19:36:10.376Z,101378.78
2023-02-06T19:38:37.126Z,101386.00
2023-02-06T19:41:24.096Z,101388.66
2023-02-06T19:43:52.548Z,101385.19
2023-02-06T19:46:22.245Z,101387.44
2023-02-06T19:48:50.376Z,101380.06
2023-02-06T19:51:22.776Z,101372.66
2023-02-06T19:53:51.110Z,101368.56
2023-02-06T19:56:24.489Z,101359.91
2023-02-06T19:59:18.067Z,101362.38
2023-02-06T20:01:49.956Z,101359.06
2023-02-06T20:04:17.504Z,101359.47
2023-02-06T20:06:44.334Z,101353.53
2023-02-06T20:09:12.949Z,101360.28
2023-02-06T20:11:39.929Z,101354.34
2023-02-06T20:14:07.030Z,101353.06
2023-02-06T20:16:35.775Z,101355.50
2023-02-06T20:19:21.129Z,101360.00
2023-02-06T20:21:51.252Z,101354.06
2023-02-06T20:24:21.988Z,101347.47
2023-02-06T20:26:50.726Z,101354.81
2023-02-06T20:29:23.747Z,101355.84
2023-02-06T20:31:50.780Z,101354.41
2023-02-06T20:34:18.040Z,101349.69
2023-02-06T20:36:45.467Z,101349.66
2023-02-06T20:39:13.740Z,101351.09
2023-02-06T20:41:41.134Z,101357.22
2023-02-06T20:44:08.177Z,101361.72
2023-02-06T20:46:36.451Z,101375.28
2023-02-06T20:49:05.694Z,101370.97
2023-02-06T20:51:32.573Z,101382.66
2023-02-06T20:53:59.213Z,101376.06
2023-02-06T20:56:27.091Z,101385.09
2023-02-06T20:58:53.871Z,101380.16
2023-02-06T21:01:29.526Z,101386.50
2023-02-06T21:03:58.961Z,101383.84
2023-02-06T21:06:26.748Z,101383.03
2023-02-06T21:08:57.385Z,101374.19
2023-02-06T21:11:24.139Z,101369.84
2023-02-06T21:13:50.704Z,101375.19
2023-02-06T21:16:17.377Z,101374.19
2023-02-06T21:18:43.975Z,101380.53
2023-02-06T21:21:13.463Z,101377.25
2023-02-06T21:23:42.463Z,101375.59
2023-02-06T21:26:11.116Z,101378.66
2023-02-06T21:28:38.723Z,101376.38
2023-02-06T21:31:09.471Z,101382.94
2023-02-06T21:33:37.208Z,101373.06
2023-02-06T21:36:06.943Z,101379.63
2023-02-06T21:38:35.297Z,101375.31
2023-02-06T21:41:14.049Z,101377.53
2023-02-06T21:43:40.666Z,101378.16
2023-02-06T21:46:07.492Z,101387.19
2023-02-06T21:48:34.977Z,101377.53
2023-02-06T21:51:15.803Z,101382.88
2023-02-06T21:53:44.384Z,101368.50
2023-02-06T21:56:22.694Z,101376.91
2023-02-06T21:58:50.341Z,101373.03
2023-02-06T22:01:26.027Z,101369.34
2023-02-06T22:03:53.524Z,101363.63
2023-02-06T22:06:20.845Z,101363.22
2023-02-06T22:08:51.924Z,101356.28
2023-02-06T22:11:21.323Z,101348.50
2023-02-06T22:13:48.565Z,101351.81
2023-02-06T22:16:17.285Z,101341.13
2023-02-06T22:18:43.883Z,101335.34
2023-02-06T22:21:13.636Z,101335.75
2023-02-06T22:23:41.265Z,101329.38
2023-02-06T22:26:09.994Z,101329.72
2023-02-06T22:28:36.890Z,101322.13
2023-02-06T22:31:07.459Z,101335.22
2023-02-06T22:33:34.674Z,101330.28
2023-02-06T22:36:13.472Z,101320.00
2023-02-06T22:38:41.131Z,101323.72
2023-02-06T22:41:11.133Z,101326.94
2023-02-06T22:43:39.616Z,101325.50
2023-02-06T22:46:07.543Z,101332.06
2023-02-06T22:48:35.202Z,101334.28
2023-02-06T22:51:09.935Z,101347.38
2023-02-06T22:53:38.296Z,101351.88
2023-02-06T22:56:26.112Z,101349.59
2023-02-06T22:59:00.134Z,101344.22
2023-02-06T23:01:30.678Z,101336.59
2023-02-06T23:03:58.012Z,101346.84
2023-02-06T23:06:26.422Z,101332.88
2023-02-06T23:08:53.346Z,101322.56
2023-02-06T23:11:20.380Z,101334.47
2023-02-06T23:13:52.468Z,101336.50
2023-02-06T23:16:19.577Z,101335.88
2023-02-06T23:18:46.259Z,101329.25
2023-02-06T23:21:14.154Z,101328.44
2023-02-06T23:23:41.653Z,101323.28
2023-02-06T23:26:10.722Z,101329.66
2023-02-06T23:28:38.003Z,101330.66
2023-02-06T23:31:05.825Z,101330.03
2023-02-06T23:44:47.509Z,101360.91
2023-02-06T23:47:14.045Z,101363.38
2023-02-06T23:49:40.620Z,101362.34
2023-02-06T23:52:07.191Z,101356.00
2023-02-06T23:54:33.823Z,101360.53
2023-02-06T23:57:00.412Z,101357.22
2023-02-06T23:59:27.049Z,101370.72
